UTDT

Qurghonteppa International Airport

Kurgan-Tyube, Tajikistan
TAF UTDT 210900Z 2110/2119 VRB02MPS 6000 FEW066 SCT120
Issued Valid From Valid To
Jul-21 @ 09:00 UTC
(52 minutes ago)
Jul-21 @ 10:00 UTC
(in 8 minutes)
Jul-21 @ 19:00 UTC
(in 9 hours)
Jul-21 @ 10:00 to Jul-21 @ 19:00
TAF UTDT 210900Z 2110/2119 VRB02MPS 6000 FEW066 SCT120
Wind Visibility Clouds
Variable at 4 knots 6,003 meters
  • Few at 6,600' AGL
  • Scattered at 12,000' AGL
TAF UTDT 210900Z 2110/2119 VRB02MPS 6000 FEW066 SCT120
Issued Jul-21 @ 09:00 UTC
(52 minutes ago)
Valid From Jul-21 @ 10:00 UTC
(in 8 minutes)
Valid To Jul-21 @ 19:00 UTC
(in 9 hours)
Jul-21 @ 10:00 - Jul-21 @ 19:00
Wind Visibility
Variable at 4 knots 6,003 meters
Clouds
  • Few at 6,600' AGL
  • Scattered at 12,000' AGL